GML weather

Gostomel Airport
Kiev, Kiev, Ukraine

Public forecast

Using degrees Celsius for public forecast. Weather courtesy of forecast.io.

METAR (pilot weather report)

Retrieved 2019/03/27 02:30 UTC (0 seconds ago):

UKKM 270230Z AUTO 20003MPS 1600 R33/1100U SN ///003/// 00/M01 Q1009

TAF (pilot weather forecast)

Forecast is more than 12 hours old.

Retrieved 2019/03/26 12:12 UTC (14 hours ago):

TAF UKKM 261105Z 2612/2712 27005G10MPS 9999 BKN020 TX08/2612Z TN00/2704Z TEMPO 2612/2620 31009G14MPS 2100 -SHRA BKN007 SCT015CB BECMG 2620/2621 20005MPS TEMPO 2621/2702 1400 -SHRASN BKN003 SCT012CB BECMG 2702/2703 27005MPS TEMPO 2703/2708 2000 -SHRASN BKN007 SCT012CB BECMG 2708/2709 36006G11MPS TEMPO 2709/2712 2100 -SHRASN BKN007 SCT015CB